Time;durP1;ratioP1;P1;durP2;ratioP2;P2;SDS_P1;SDS_P2;PMS_P1;PMS_P2;Temp;Humidity;BMP_temperature;BMP_pressure;BME280_temperature;BME280_humidity;BME280_pressure;Samples;Min_cycle;Max_cycle;Signal;HPM_P1;HPM_P2
2024/02/29 00:02:01;;;;;;;0.85;0.85;;;6.50;99.90;;;;;;6147041;23;20317;-77
2024/02/29 00:04:28;;;;;;;1.02;1.02;;;6.30;99.90;;;;;;6121142;23;20068;-78
2024/02/29 00:06:57;;;;;;;1.70;0.88;;;6.30;99.90;;;;;;6147429;23;20013;-78
2024/02/29 00:09:22;;;;;;;1.38;0.80;;;6.30;99.90;;;;;;6145406;23;20022;-77
2024/02/29 00:11:49;;;;;;;1.13;1.13;;;6.40;99.90;;;;;;6122927;23;20029;-78
2024/02/29 00:14:15;;;;;;;2.25;0.90;;;6.40;99.90;;;;;;6125179;23;20456;-78
2024/02/29 00:16:43;;;;;;;;;;;6.50;99.90;;;;;;6127290;23;20010;-80
2024/02/29 00:19:09;;;;;;;0.50;0.50;;;6.50;99.90;;;;;;6150998;23;19916;-81
2024/02/29 00:21:35;;;;;;;;;;;6.60;99.90;;;;;;6153959;23;20014;-77
2024/02/29 00:24:01;;;;;;;0.70;0.70;;;6.40;99.90;;;;;;6125356;23;19919;-78
2024/02/29 00:26:26;;;;;;;0.50;0.50;;;7.20;99.90;;;;;;6126449;23;20055;-78
2024/02/29 00:28:52;;;;;;;0.93;0.93;;;6.30;99.90;;;;;;6151727;23;20073;-79
2024/02/29 00:31:18;;;;;;;1.85;1.75;;;6.50;99.90;;;;;;6125606;23;20072;-80
2024/02/29 00:33:44;;;;;;;;;;;6.40;99.90;;;;;;6152386;23;20372;-79
2024/02/29 00:36:09;;;;;;;3.30;2.05;;;6.60;99.90;;;;;;6151386;23;19921;-78
2024/02/29 00:38:38;;;;;;;5.28;1.45;;;6.30;99.90;;;;;;6126607;23;20076;-78
2024/02/29 00:41:04;;;;;;;1.85;1.75;;;6.30;99.90;;;;;;6152000;23;20013;-77
2024/02/29 00:43:30;;;;;;;5.43;2.08;;;6.80;99.90;;;;;;6151755;23;20525;-79
2024/02/29 00:45:55;;;;;;;0.70;0.70;;;6.50;99.90;;;;;;6102001;23;20028;-79
2024/02/29 00:48:21;;;;;;;1.52;1.42;;;6.40;99.90;;;;;;6126413;23;20024;-79
2024/02/29 00:50:47;;;;;;;0.68;0.68;;;6.40;99.90;;;;;;6152358;23;20352;-79
2024/02/29 00:53:12;;;;;;;1.70;1.60;;;6.40;99.90;;;;;;6125024;23;20072;-78
2024/02/29 00:55:38;;;;;;;1.50;0.88;;;6.60;99.90;;;;;;6125099;23;20017;-79
2024/02/29 00:58:04;;;;;;;14.10;3.25;;;;;;;;;;6125444;23;20847;-79
2024/02/29 01:00:31;;;;;;;0.60;0.60;;;;;;;;;;6127473;23;20017;-81
2024/02/29 01:02:57;;;;;;;0.60;0.60;;;;;;;;;;6154062;23;20534;-78
2024/02/29 01:05:23;;;;;;;;;;;;;;;;;;6128183;23;20451;-81
2024/02/29 01:07:49;;;;;;;1.00;1.00;;;;;;;;;;6129445;23;19923;-81
2024/02/29 01:10:15;;;;;;;1.55;1.45;;;;;;;;;;6155513;23;20018;-81
2024/02/29 01:12:41;;;;;;;;;;;;;;;;;;6154618;23;20121;-79
2024/02/29 01:15:08;;;;;;;2.13;2.03;;;;;;;;;;6101851;23;19917;-80
2024/02/29 01:17:35;;;;;;;0.50;0.50;;;;;;;;;;6102760;23;20024;-79
2024/02/29 01:20:01;;;;;;;1.17;1.17;;;;;;;;;;6153878;23;20017;-82
2024/02/29 01:22:27;;;;;;;;;;;;;;;;;;6154501;23;20076;-80
2024/02/29 01:24:53;;;;;;;6.47;3.55;;;;;;;;;;6154388;23;19917;-81
2024/02/29 01:27:19;;;;;;;0.63;0.63;;;;;;;;;;6153240;23;20029;-80
2024/02/29 01:29:45;;;;;;;3.13;2.53;;;;;;;;;;6128539;23;20018;-79
2024/02/29 01:32:11;;;;;;;0.77;0.77;;;;;;;;;;6128362;23;20017;-80
2024/02/29 01:34:37;;;;;;;;;;;;;;;;;;6155634;23;20022;-81
2024/02/29 01:37:04;;;;;;;1.08;1.08;;;;;;;;;;6129042;23;20249;-78
2024/02/29 01:39:30;;;;;;;2.22;1.75;;;;;;;;;;6127209;23;20018;-79
2024/02/29 01:41:56;;;;;;;;;;;;;;;;;;6155316;23;20439;-79
2024/02/29 01:44:26;;;;;;;0.60;0.60;;;;;;;;;;6127270;23;19920;-80
2024/02/29 01:46:52;;;;;;;0.73;0.73;;;;;;;;;;6105046;23;20451;-81
2024/02/29 01:49:19;;;;;;;2.03;1.67;;;;;;;;;;6153818;23;20479;-79
2024/02/29 01:51:45;;;;;;;1.02;1.02;;;;;;;;;;6127497;23;20088;-80
2024/02/29 01:54:11;;;;;;;5.43;1.75;;;;;;;;;;6102573;23;20049;-79
2024/02/29 01:56:37;;;;;;;;;;;;;;;;;;6128309;23;20503;-80
2024/02/29 01:59:05;;;;;;;1.23;1.23;;;;;;;;;;6128177;23;19916;-80
2024/02/29 02:01:31;;;;;;;0.52;0.52;;;;;;;;;;6125894;23;20021;-78
2024/02/29 02:03:57;;;;;;;1.05;1.05;;;;;;;;;;6102275;23;20025;-78
2024/02/29 02:06:23;;;;;;;1.20;1.20;;;;;;;;;;6153243;23;20021;-79
2024/02/29 02:08:49;;;;;;;0.70;0.70;;;;;;;;;;6154030;23;20037;-80
2024/02/29 02:11:15;;;;;;;;;;;;;;;;;;6153760;23;20060;-79
2024/02/29 02:13:41;;;;;;;0.50;0.50;;;;;;;;;;6153625;23;19912;-80
2024/02/29 02:16:07;;;;;;;;;;;;;;;;;;6103084;23;20029;-80
2024/02/29 02:18:33;;;;;;;1.20;1.10;;;6.60;99.90;;;;;;6127271;23;19916;-80
2024/02/29 02:20:59;;;;;;;0.77;0.77;;;6.40;99.90;;;;;;6127507;23;20005;-81
2024/02/29 02:23:25;;;;;;;1.30;1.30;;;6.90;99.90;;;;;;6102792;23;20014;-79
2024/02/29 02:25:51;;;;;;;1.95;1.85;;;6.50;99.90;;;;;;6153319;23;20018;-80
2024/02/29 02:28:16;;;;;;;0.65;0.65;;;6.50;99.90;;;;;;6152789;23;20017;-80
2024/02/29 02:30:42;;;;;;;0.38;0.38;;;6.50;99.90;;;;;;6128834;23;20456;-82
2024/02/29 02:33:10;;;;;;;0.70;0.70;;;6.20;99.90;;;;;;6127625;23;20358;-80
2024/02/29 02:35:36;;;;;;;1.80;1.67;;;6.50;99.90;;;;;;6126315;23;20075;-79
2024/02/29 02:38:05;;;;;;;0.80;0.80;;;6.20;99.90;;;;;;6128556;23;20428;-80
2024/02/29 02:40:31;;;;;;;0.98;0.98;;;6.30;99.90;;;;;;6102838;23;20505;-79
2024/02/29 02:42:57;;;;;;;0.60;0.60;;;5.80;99.90;;;;;;6153394;23;20041;-79
2024/02/29 02:45:24;;;;;;;2.65;2.42;;;6.50;99.90;;;;;;6126813;23;20028;-80
2024/02/29 02:47:51;;;;;;;1.05;1.02;;;6.50;99.90;;;;;;6128108;23;20023;-79
2024/02/29 02:50:16;;;;;;;;;;;6.60;99.90;;;;;;6154532;23;20024;-80
2024/02/29 02:52:42;;;;;;;0.50;0.50;;;6.40;99.90;;;;;;6154384;23;19913;-82
2024/02/29 02:55:08;;;;;;;1.70;1.60;;;6.70;99.90;;;;;;6104131;23;20017;-79
2024/02/29 02:57:34;;;;;;;1.02;1.02;;;6.30;99.90;;;;;;6153378;23;20088;-79
2024/02/29 02:59:59;;;;;;;0.65;0.65;;;6.60;99.90;;;;;;6127709;23;20109;-80
2024/02/29 03:02:25;;;;;;;1.15;1.15;;;6.90;99.90;;;;;;6126707;23;20387;-79
2024/02/29 03:04:51;;;;;;;1.65;1.27;;;6.70;99.90;;;;;;6153625;23;20039;-80
2024/02/29 03:07:17;;;;;;;1.10;1.02;;;6.80;99.90;;;;;;6127504;23;20419;-80
2024/02/29 03:09:42;;;;;;;0.60;0.60;;;6.50;99.90;;;;;;6128057;23;20063;-80
2024/02/29 03:12:10;;;;;;;1.67;1.58;;;7.30;99.90;;;;;;6128583;23;20098;-82
2024/02/29 03:14:35;;;;;;;1.38;1.27;;;6.30;99.90;;;;;;6104287;23;20467;-83
2024/02/29 03:17:01;;;;;;;0.70;0.70;;;6.60;99.90;;;;;;6128510;23;20041;-80
2024/02/29 03:19:27;;;;;;;4.78;0.93;;;6.20;99.90;;;;;;6128820;23;20009;-81
2024/02/29 03:21:52;;;;;;;1.42;1.38;;;6.90;99.90;;;;;;6104082;23;20028;-79
2024/02/29 03:24:18;;;;;;;0.95;0.95;;;6.50;99.90;;;;;;6094899;23;20032;-80
2024/02/29 03:26:44;;;;;;;1.60;1.58;;;6.90;99.90;;;;;;6127840;23;20032;-79
2024/02/29 03:29:11;;;;;;;0.85;0.85;;;6.60;99.90;;;;;;6129124;23;20028;-81
2024/02/29 03:31:37;;;;;;;1.02;1.02;;;6.40;99.90;;;;;;6128402;23;20022;-80
2024/02/29 03:34:04;;;;;;;0.80;0.80;;;6.30;99.90;;;;;;6127599;23;20025;-79
2024/02/29 03:36:29;;;;;;;3.17;2.08;;;6.40;99.90;;;;;;6128494;23;20092;-80
2024/02/29 03:38:55;;;;;;;0.55;0.55;;;6.80;99.90;;;;;;6128924;23;20044;-80
2024/02/29 03:41:21;;;;;;;0.85;0.85;;;6.50;99.90;;;;;;6103415;23;20072;-79
2024/02/29 03:43:46;;;;;;;2.22;1.65;;;6.40;99.90;;;;;;6078974;23;20013;-79
2024/02/29 03:46:12;;;;;;;0.50;0.50;;;6.30;99.90;;;;;;6103746;23;20052;-80
2024/02/29 03:48:39;;;;;;;0.70;0.70;;;6.20;99.90;;;;;;6127175;23;20020;-80
2024/02/29 03:51:04;;;;;;;0.80;0.80;;;6.10;99.90;;;;;;6128960;23;20016;-81
2024/02/29 03:53:30;;;;;;;0.70;0.70;;;6.90;99.90;;;;;;6127211;23;20021;-79
2024/02/29 03:55:56;;;;;;;0.80;0.80;;;6.20;99.90;;;;;;6125738;23;20024;-79
2024/02/29 03:58:21;;;;;;;1.63;0.82;;;6.50;99.90;;;;;;6153040;23;20441;-83
2024/02/29 04:00:48;;;;;;;0.70;0.70;;;6.40;99.90;;;;;;6102633;23;20041;-80
2024/02/29 04:03:14;;;;;;;3.92;0.85;;;6.40;99.90;;;;;;6152186;23;20093;-79
2024/02/29 04:05:39;;;;;;;1.77;1.67;;;6.10;99.90;;;;;;6151587;23;20041;-79
2024/02/29 04:08:10;;;;;;;1.02;1.02;;;6.40;99.90;;;;;;6100902;23;20175;-79
2024/02/29 04:10:41;;;;;;;2.03;1.92;;;6.20;99.90;;;;;;6125538;23;20029;-79
2024/02/29 04:13:07;;;;;;;2.65;1.55;;;6.40;99.90;;;;;;6126128;23;20017;-79
2024/02/29 04:15:33;;;;;;;3.38;3.10;;;6.20;99.90;;;;;;6125315;23;20096;-77
2024/02/29 04:18:00;;;;;;;0.82;0.82;;;6.20;99.90;;;;;;6151178;23;20057;-79
2024/02/29 04:20:26;;;;;;;0.60;0.60;;;6.80;99.90;;;;;;6101359;23;20018;-78
2024/02/29 04:22:51;;;;;;;1.65;1.05;;;6.50;99.90;;;;;;6151993;23;20028;-81
2024/02/29 04:25:22;;;;;;;0.40;0.40;;;6.50;99.90;;;;;;6126527;23;20045;-81
2024/02/29 04:27:51;;;;;;;0.68;0.68;;;6.20;99.90;;;;;;6152257;23;20085;-79
2024/02/29 04:30:18;;;;;;;0.57;0.57;;;6.10;99.90;;;;;;6127755;23;20021;-80
2024/02/29 04:32:44;;;;;;;1.15;0.88;;;6.40;99.90;;;;;;6103293;23;20021;-80
2024/02/29 04:35:09;;;;;;;;;;;6.30;99.90;;;;;;6104735;23;20021;-80
2024/02/29 04:37:36;;;;;;;0.80;0.80;;;6.40;99.90;;;;;;6129242;23;19916;-79
2024/02/29 04:40:03;;;;;;;1.63;1.27;;;6.20;99.90;;;;;;6105236;23;20522;-83
2024/02/29 04:42:30;;;;;;;0.80;0.80;;;6.50;99.90;;;;;;6129256;23;20356;-81
2024/02/29 04:44:55;;;;;;;2.22;2.13;;;6.30;99.90;;;;;;6154566;23;20037;-80
2024/02/29 04:47:22;;;;;;;1.17;1.17;;;6.10;99.90;;;;;;6129498;23;20021;-79
2024/02/29 04:49:48;;;;;;;;;;;6.50;99.90;;;;;;6155448;23;20096;-79
2024/02/29 04:52:13;;;;;;;0.70;0.70;;;6.20;99.90;;;;;;6154542;23;20369;-79
2024/02/29 04:54:39;;;;;;;1.80;1.73;;;6.30;99.90;;;;;;6153640;23;20093;-79
2024/02/29 04:57:05;;;;;;;0.65;0.65;;;6.90;99.90;;;;;;6153110;23;20068;-79
2024/02/29 04:59:31;;;;;;;2.05;1.95;;;6.10;99.90;;;;;;6128144;23;20017;-79
2024/02/29 05:01:57;;;;;;;0.93;0.93;;;6.20;99.90;;;;;;6079632;23;20067;-81
2024/02/29 05:04:23;;;;;;;1.70;1.67;;;5.80;99.90;;;;;;6127311;23;20068;-79
2024/02/29 05:06:49;;;;;;;0.40;0.40;;;6.70;99.90;;;;;;6153226;23;20398;-79
2024/02/29 05:09:15;;;;;;;1.08;1.08;;;6.40;99.90;;;;;;6127629;23;20029;-79
2024/02/29 05:11:41;;;;;;;1.90;1.58;;;6.00;99.90;;;;;;6102681;23;20455;-79
2024/02/29 05:14:07;;;;;;;1.08;1.08;;;6.00;99.90;;;;;;6126924;23;20332;-80
2024/02/29 05:16:33;;;;;;;1.17;1.13;;;6.10;99.90;;;;;;6126319;23;20014;-79
2024/02/29 05:18:59;;;;;;;2.95;2.47;;;6.30;99.90;;;;;;6126917;23;20025;-78
2024/02/29 05:21:25;;;;;;;1.27;1.17;;;6.10;99.90;;;;;;6153887;23;20010;-82
2024/02/29 05:23:51;;;;;;;0.65;0.65;;;6.10;99.90;;;;;;6103028;23;20021;-79
2024/02/29 05:26:18;;;;;;;1.95;1.45;;;6.00;99.90;;;;;;6128075;23;20022;-80
2024/02/29 05:28:44;;;;;;;0.73;0.73;;;6.00;99.90;;;;;;6153311;23;20052;-80
2024/02/29 05:31:10;;;;;;;;;;;6.70;99.90;;;;;;6129457;23;20021;-79
2024/02/29 05:33:37;;;;;;;0.50;0.50;;;6.20;99.90;;;;;;6155563;23;19919;-79
2024/02/29 05:36:03;;;;;;;0.50;0.50;;;6.30;99.90;;;;;;6102258;23;20017;-78
2024/02/29 05:38:29;;;;;;;;;;;6.10;99.90;;;;;;6154446;23;20009;-78
2024/02/29 05:40:57;;;;;;;0.88;0.50;;;6.50;99.90;;;;;;6127369;23;20254;-78
2024/02/29 05:43:23;;;;;;;1.55;1.45;;;6.30;99.90;;;;;;6154046;23;20351;-79
2024/02/29 05:45:49;;;;;;;;;;;6.10;99.90;;;;;;6153805;23;20018;-80
2024/02/29 05:48:15;;;;;;;0.65;0.65;;;6.30;99.90;;;;;;6154099;23;20375;-82
2024/02/29 05:50:41;;;;;;;1.15;1.15;;;6.50;99.90;;;;;;6128664;23;20391;-80
2024/02/29 05:53:07;;;;;;;1.77;0.90;;;6.20;99.90;;;;;;6103679;23;20013;-80
2024/02/29 05:55:33;;;;;;;0.73;0.73;;;6.40;99.90;;;;;;6154291;23;20013;-80
2024/02/29 05:57:58;;;;;;;0.50;0.50;;;6.10;99.90;;;;;;6154853;23;20100;-81
2024/02/29 06:00:24;;;;;;;0.68;0.68;;;6.80;99.90;;;;;;6130029;23;20014;-82
2024/02/29 06:02:50;;;;;;;0.75;0.75;;;7.20;99.90;;;;;;6155328;23;20024;-85
2024/02/29 06:05:15;;;;;;;1.25;1.15;;;6.10;99.90;;;;;;6129378;23;20045;-77
2024/02/29 06:07:41;;;;;;;0.50;0.50;;;6.80;99.90;;;;;;6154843;23;20017;-82
2024/02/29 06:10:11;;;;;;;0.60;0.60;;;6.20;99.90;;;;;;6154816;23;20014;-82
2024/02/29 06:12:37;;;;;;;0.32;0.32;;;6.20;99.90;;;;;;6157835;23;20069;-81
2024/02/29 06:15:04;;;;;;;0.63;0.63;;;6.50;99.90;;;;;;6104659;23;20048;-80
2024/02/29 06:17:29;;;;;;;1.30;0.60;;;6.10;99.90;;;;;;6154502;23;20017;-79
2024/02/29 06:19:55;;;;;;;1.05;0.98;;;6.40;99.90;;;;;;6154623;23;20340;-80
2024/02/29 06:22:22;;;;;;;1.83;1.52;;;6.20;99.90;;;;;;6104790;23;20332;-82
2024/02/29 06:24:52;;;;;;;0.30;0.30;;;6.90;99.90;;;;;;6105762;23;20403;-79
2024/02/29 06:27:21;;;;;;;0.68;0.68;;;6.30;99.90;;;;;;6156476;23;20455;-78
2024/02/29 06:29:48;;;;;;;1.58;1.48;;;6.80;99.90;;;;;;6153073;23;20479;-79
2024/02/29 06:32:14;;;;;;;0.90;0.85;;;6.50;99.90;;;;;;6129320;23;20072;-82
2024/02/29 06:34:40;;;;;;;1.17;1.17;;;5.90;99.90;;;;;;6157099;23;20089;-80
2024/02/29 06:37:07;;;;;;;1.20;1.10;;;5.90;99.90;;;;;;6130125;23;20020;-81
2024/02/29 06:39:33;;;;;;;1.17;1.17;;;6.00;99.90;;;;;;6131034;23;20013;-79
2024/02/29 06:41:59;;;;;;;1.75;1.35;;;5.90;99.90;;;;;;6102709;23;20049;-80
2024/02/29 06:44:25;;;;;;;0.52;0.52;;;6.90;99.90;;;;;;6131434;23;20051;-79
2024/02/29 06:46:51;;;;;;;0.50;0.50;;;6.20;99.90;;;;;;6131074;23;20459;-81
2024/02/29 06:49:20;;;;;;;0.73;0.73;;;6.20;99.90;;;;;;6130559;23;20029;-79
2024/02/29 06:51:46;;;;;;;1.02;0.95;;;6.10;99.90;;;;;;6129298;23;20029;-79
2024/02/29 06:54:11;;;;;;;0.93;0.93;;;5.90;99.90;;;;;;6130766;23;20471;-79
2024/02/29 06:56:37;;;;;;;1.00;1.00;;;6.20;99.90;;;;;;6156886;23;20363;-83
2024/02/29 06:59:04;;;;;;;0.43;0.43;;;6.20;99.90;;;;;;6105222;23;20013;-82
2024/02/29 07:01:32;;;;;;;0.52;0.52;;;7.80;99.90;;;;;;6130705;23;20014;-79
2024/02/29 07:03:58;;;;;;;1.67;0.70;;;6.50;99.90;;;;;;6103847;23;20044;-82
2024/02/29 07:06:24;;;;;;;0.60;0.60;;;6.10;99.90;;;;;;6155375;23;20024;-80
2024/02/29 07:08:50;;;;;;;1.35;1.25;;;5.90;99.90;;;;;;6105415;23;20061;-80
2024/02/29 07:11:16;;;;;;;0.40;0.40;;;6.60;99.90;;;;;;6104085;23;20072;-78
2024/02/29 07:13:42;;;;;;;1.17;1.17;;;5.90;99.90;;;;;;6105083;23;20393;-79
2024/02/29 07:16:09;;;;;;;0.60;0.60;;;6.20;99.90;;;;;;6156381;23;20356;-78
2024/02/29 07:18:35;;;;;;;0.70;0.70;;;6.50;99.90;;;;;;6106302;23;20013;-81
2024/02/29 07:21:02;;;;;;;;;;;6.00;99.90;;;;;;6159400;23;20036;-83
2024/02/29 07:23:28;;;;;;;0.77;0.77;;;6.10;99.90;;;;;;6156047;23;20356;-81
2024/02/29 07:25:54;;;;;;;0.60;0.60;;;6.80;99.90;;;;;;6156477;23;20099;-81
2024/02/29 07:28:20;;;;;;;0.63;0.63;;;6.60;99.90;;;;;;6137315;23;20657;-85
2024/02/29 07:30:45;;;;;;;0.80;0.80;;;6.70;99.90;;;;;;6110766;23;20018;-83
2024/02/29 07:33:11;;;;;;;1.40;1.40;;;7.20;99.90;;;;;;6133505;23;20025;-82
2024/02/29 07:35:38;;;;;;;0.70;0.70;;;5.90;99.90;;;;;;6162671;23;20124;-81
2024/02/29 07:38:04;;;;;;;1.02;1.02;;;6.50;99.90;;;;;;6134068;23;20108;-83
2024/02/29 07:40:30;;;;;;;0.50;0.50;;;6.30;99.90;;;;;;6162487;23;20020;-82
2024/02/29 07:42:56;;;;;;;1.33;1.33;;;6.20;99.90;;;;;;6162888;23;20013;-83
2024/02/29 07:45:23;;;;;;;0.98;0.98;;;6.30;99.90;;;;;;6112583;23;20770;-83
2024/02/29 07:47:49;;;;;;;1.35;1.25;;;6.90;99.90;;;;;;6162091;23;20028;-82
2024/02/29 07:50:15;;;;;;;1.13;1.10;;;6.50;99.90;;;;;;6088292;23;20017;-84
2024/02/29 07:52:40;;;;;;;1.95;1.13;;;6.20;99.90;;;;;;6089274;23;20017;-82
2024/02/29 07:55:14;;;;;;;0.80;0.80;;;6.20;99.90;;;;;;6086341;23;20018;-83
2024/02/29 07:57:43;;;;;;;0.93;0.93;;;6.20;99.90;;;;;;6162402;23;20017;-82
2024/02/29 08:00:10;;;;;;;0.77;0.75;;;6.20;99.90;;;;;;6088642;23;20156;-82
2024/02/29 08:02:37;;;;;;;0.43;0.43;;;6.10;99.90;;;;;;6160409;23;20009;-83
2024/02/29 08:05:04;;;;;;;3.15;1.35;;;6.80;99.90;;;;;;6134227;23;20100;-84
2024/02/29 08:07:30;;;;;;;0.57;0.57;;;6.50;99.90;;;;;;6135397;23;20088;-81
2024/02/29 08:09:57;;;;;;;1.60;1.50;;;7.50;99.90;;;;;;6160328;23;20014;-84
2024/02/29 08:12:23;;;;;;;1.35;1.35;;;6.90;99.90;;;;;;6161468;23;20016;-83
2024/02/29 08:14:49;;;;;;;1.48;1.38;;;6.50;99.90;;;;;;6134929;23;20018;-84
2024/02/29 08:17:16;;;;;;;0.47;0.47;;;6.60;99.90;;;;;;6110875;23;20025;-81
2024/02/29 08:19:42;;;;;;;0.60;0.60;;;6.70;99.90;;;;;;6161417;23;20009;-81
2024/02/29 08:22:07;;;;;;;;;;;6.90;99.90;;;;;;6137798;23;20440;-81
2024/02/29 08:24:33;;;;;;;3.33;1.38;;;6.70;99.90;;;;;;6161644;23;19921;-84
2024/02/29 08:26:59;;;;;;;0.85;0.85;;;6.70;99.90;;;;;;6161818;23;20134;-82
2024/02/29 08:29:25;;;;;;;1.50;1.40;;;6.50;99.90;;;;;;6133568;23;20026;-83
2024/02/29 08:31:51;;;;;;;1.77;1.15;;;6.70;99.90;;;;;;6163408;23;20021;-84
2024/02/29 08:34:17;;;;;;;1.05;1.05;;;6.60;99.90;;;;;;6137243;23;20475;-83
2024/02/29 08:36:44;;;;;;;;;;;6.70;99.90;;;;;;6113339;23;20041;-83
2024/02/29 08:39:09;;;;;;;2.13;1.13;;;6.70;99.90;;;;;;6160582;23;19984;-82
2024/02/29 08:41:41;;;;;;;0.35;0.35;;;7.90;99.90;;;;;;6135718;23;20330;-83
2024/02/29 08:44:07;;;;;;;0.70;0.70;;;6.90;99.90;;;;;;6133913;23;20041;-81
2024/02/29 08:46:33;;;;;;;0.52;0.52;;;7.00;99.90;;;;;;6158537;23;20336;-82
2024/02/29 08:48:59;;;;;;;0.50;0.50;;;6.70;99.90;;;;;;6109684;23;20084;-81
2024/02/29 08:51:25;;;;;;;;;;;6.70;99.90;;;;;;6131781;23;20383;-79
2024/02/29 08:53:51;;;;;;;1.13;0.73;;;;;;;;;;6127641;23;19932;-80
2024/02/29 08:56:17;;;;;;;;;;;;;;;;;;6130324;23;20014;-82
2024/02/29 08:58:43;;;;;;;1.02;1.02;;;;;;;;;;6129585;23;19939;-81
2024/02/29 09:01:09;;;;;;;0.70;0.70;;;;;;;;;;6158108;23;20037;-79
2024/02/29 09:03:35;;;;;;;;;;;;;;;;;;6157005;23;20092;-81
2024/02/29 09:06:01;;;;;;;0.40;0.40;;;6.90;99.90;;;;;;6155095;23;19940;-76
2024/02/29 09:08:26;;;;;;;0.75;0.75;;;6.90;99.90;;;;;;6155749;23;20017;-81
2024/02/29 09:10:52;;;;;;;0.40;0.40;;;6.90;99.90;;;;;;6079923;23;20451;-80
2024/02/29 09:13:18;;;;;;;0.40;0.40;;;6.90;99.90;;;;;;6152357;23;20032;-76
2024/02/29 09:15:44;;;;;;;0.47;0.47;;;7.10;99.90;;;;;;6151493;23;20022;-79
2024/02/29 09:18:09;;;;;;;0.55;0.55;;;7.00;99.90;;;;;;6101169;23;20108;-80
2024/02/29 09:20:35;;;;;;;0.77;0.77;;;7.10;99.90;;;;;;6100616;23;20310;-79
2024/02/29 09:23:02;;;;;;;1.00;0.95;;;7.00;99.90;;;;;;6153721;23;20013;-80
2024/02/29 09:25:28;;;;;;;1.67;1.58;;;7.10;99.90;;;;;;6125598;23;20014;-79
2024/02/29 09:27:53;;;;;;;0.82;0.82;;;6.90;99.90;;;;;;6127150;23;20550;-79
2024/02/29 09:30:19;;;;;;;0.80;0.65;;;7.30;99.90;;;;;;6127087;23;20026;-78
2024/02/29 09:32:51;;;;;;;0.40;0.40;;;7.10;99.90;;;;;;6153609;23;20021;-79
2024/02/29 09:35:20;;;;;;;0.60;0.60;;;7.20;99.90;;;;;;6127002;23;20017;-78
2024/02/29 09:37:46;;;;;;;0.85;0.85;;;7.20;99.90;;;;;;6127537;23;20439;-79
2024/02/29 09:40:11;;;;;;;0.73;0.73;;;7.20;99.90;;;;;;6152692;23;20014;-80
2024/02/29 09:42:37;;;;;;;0.60;0.60;;;7.20;99.90;;;;;;6127435;23;20009;-79
2024/02/29 09:45:11;;;;;;;1.35;1.25;;;7.20;99.90;;;;;;6127887;23;20021;-81
2024/02/29 09:47:39;;;;;;;0.68;0.60;;;7.20;99.90;;;;;;6154089;23;20080;-80
2024/02/29 09:50:08;;;;;;;0.60;0.60;;;7.30;99.90;;;;;;6154860;23;20024;-81
2024/02/29 09:52:38;;;;;;;1.38;1.38;;;7.20;99.90;;;;;;6127586;23;20022;-81
2024/02/29 09:55:06;;;;;;;0.90;0.90;;;7.20;99.90;;;;;;6127422;23;20017;-80
2024/02/29 09:57:34;;;;;;;0.43;0.43;;;7.20;99.90;;;;;;6103061;23;20017;-80
2024/02/29 10:00:01;;;;;;;1.15;1.05;;;7.20;99.90;;;;;;6128392;23;20024;-79
2024/02/29 10:02:27;;;;;;;0.75;0.75;;;7.20;99.90;;;;;;6126741;23;20088;-79
2024/02/29 10:04:53;;;;;;;0.60;0.60;;;7.20;99.90;;;;;;6128830;23;20064;-81
2024/02/29 10:07:19;;;;;;;0.85;0.85;;;7.20;99.90;;;;;;6127322;23;20092;-80
2024/02/29 10:09:45;;;;;;;;;;;7.20;99.90;;;;;;6102025;23;20057;-79
2024/02/29 10:12:18;;;;;;;1.05;1.05;;;7.20;99.90;;;;;;6126680;23;19916;-79
2024/02/29 10:14:44;;;;;;;0.40;0.40;;;7.20;99.90;;;;;;6126950;23;20411;-81
2024/02/29 10:17:13;;;;;;;0.77;0.70;;;7.30;99.90;;;;;;6128662;23;20428;-80
2024/02/29 10:19:39;;;;;;;1.02;1.02;;;7.20;99.90;;;;;;6152808;23;20049;-78
2024/02/29 10:22:05;;;;;;;0.70;0.70;;;7.30;99.90;;;;;;6128005;23;20084;-79
2024/02/29 10:24:30;;;;;;;0.60;0.60;;;7.20;99.90;;;;;;6126192;23;20021;-80
2024/02/29 10:27:03;;;;;;;0.55;0.55;;;7.20;99.90;;;;;;6125756;23;20022;-80
2024/02/29 10:29:31;;;;;;;1.05;0.98;;;7.30;99.90;;;;;;6152249;23;20029;-81
2024/02/29 10:31:58;;;;;;;0.40;0.40;;;7.20;99.90;;;;;;6128517;23;20013;-81
2024/02/29 10:34:24;;;;;;;0.50;0.50;;;7.30;99.90;;;;;;6148421;23;20045;-80
2024/02/29 10:36:50;;;;;;;0.73;0.70;;;7.40;99.90;;;;;;6152211;23;20017;-79
2024/02/29 10:39:16;;;;;;;1.90;1.80;;;7.40;99.90;;;;;;6153865;23;20463;-80
2024/02/29 10:41:50;;;;;;;1.25;1.15;;;7.50;99.90;;;;;;6129204;23;20013;-80
2024/02/29 10:44:20;;;;;;;1.25;1.15;;;7.50;99.90;;;;;;6128872;23;20041;-80
2024/02/29 10:46:50;;;;;;;0.90;0.90;;;7.60;99.90;;;;;;6155557;23;20507;-81
2024/02/29 10:49:34;;;;;;;1.15;0.63;;;7.70;99.90;;;;;;6154935;23;20013;-81
2024/02/29 10:52:33;;;;;;;0.60;0.55;;;7.70;99.90;;;;;;6128646;23;20013;-82
2024/02/29 10:55:13;;;;;;;0.60;0.60;;;7.80;99.90;;;;;;6152858;23;20025;-78
2024/02/29 10:58:00;;;;;;;0.55;0.55;;;7.70;99.90;;;;;;6147524;23;20526;-80
2024/02/29 11:00:26;;;;;;;;;;;7.70;99.90;;;;;;6128000;23;20017;-80
2024/02/29 11:02:53;;;;;;;0.73;0.70;;;7.80;99.90;;;;;;6103207;23;19955;-79
2024/02/29 11:05:20;;;;;;;1.38;0.70;;;7.70;99.90;;;;;;6126653;23;20044;-81
2024/02/29 11:07:47;;;;;;;0.50;0.50;;;7.70;99.90;;;;;;6152865;23;20089;-80
2024/02/29 11:10:14;;;;;;;0.40;0.40;;;7.70;99.90;;;;;;6151700;23;20010;-80
2024/02/29 11:12:42;;;;;;;0.57;0.57;;;7.70;99.90;;;;;;6126807;23;20040;-78
2024/02/29 11:15:12;;;;;;;0.50;0.50;;;7.70;99.90;;;;;;6153705;23;20017;-80
2024/02/29 11:17:41;;;;;;;0.60;0.60;;;7.60;99.90;;;;;;6153095;23;20013;-79
2024/02/29 11:20:09;;;;;;;2.42;2.33;;;7.60;99.90;;;;;;6153891;23;20009;-79
2024/02/29 11:22:36;;;;;;;1.98;1.88;;;7.60;99.90;;;;;;6103266;23;20017;-79
2024/02/29 11:25:11;;;;;;;0.75;0.75;;;7.60;99.90;;;;;;6102661;23;20088;-80
2024/02/29 11:27:36;;;;;;;1.63;1.55;;;7.70;99.90;;;;;;6154381;23;20036;-81
2024/02/29 11:30:03;;;;;;;0.68;0.68;;;7.70;99.90;;;;;;6128559;23;20096;-80
2024/02/29 11:32:32;;;;;;;0.90;0.90;;;7.70;99.90;;;;;;6128306;23;20024;-81
2024/02/29 11:35:01;;;;;;;1.38;0.88;;;7.70;99.90;;;;;;6155699;23;20025;-81
2024/02/29 11:37:32;;;;;;;0.60;0.60;;;7.70;99.90;;;;;;6082352;23;20435;-80
2024/02/29 11:40:04;;;;;;;0.60;0.60;;;7.80;99.90;;;;;;6154590;23;20495;-78
2024/02/29 11:42:30;;;;;;;0.50;0.50;;;7.80;99.90;;;;;;6155999;23;20455;-80
2024/02/29 11:44:56;;;;;;;1.75;1.05;;;7.80;99.90;;;;;;6156033;23;20028;-81
2024/02/29 11:47:21;;;;;;;0.90;0.90;;;7.90;99.90;;;;;;6157826;23;20549;-81
2024/02/29 11:49:48;;;;;;;0.95;0.95;;;8.00;99.90;;;;;;6156180;23;20024;-79
2024/02/29 11:52:15;;;;;;;;;;;8.00;99.90;;;;;;6151175;23;20083;-81
2024/02/29 11:54:42;;;;;;;0.73;0.60;;;8.00;99.90;;;;;;6153703;23;19921;-82
2024/02/29 11:57:08;;;;;;;1.30;1.17;;;8.10;99.90;;;;;;6129727;23;20021;-79
2024/02/29 11:59:36;;;;;;;0.68;0.68;;;8.00;99.90;;;;;;6158471;23;20149;-79
2024/02/29 12:02:05;;;;;;;0.57;0.57;;;8.00;99.90;;;;;;6131952;23;20025;-80
2024/02/29 12:04:31;;;;;;;0.63;0.63;;;8.00;99.90;;;;;;6156386;23;20454;-80
2024/02/29 12:06:57;;;;;;;0.82;0.82;;;7.90;99.90;;;;;;6157919;23;20025;-80
2024/02/29 12:09:22;;;;;;;0.60;0.60;;;7.90;99.90;;;;;;6156566;23;20021;-80
2024/02/29 12:11:49;;;;;;;1.35;1.25;;;7.90;99.90;;;;;;6131988;23;20105;-82
2024/02/29 12:14:14;;;;;;;0.88;0.88;;;7.90;99.90;;;;;;6157706;23;20108;-80
2024/02/29 12:16:43;;;;;;;1.45;1.45;;;7.90;99.90;;;;;;6157352;23;20474;-80
2024/02/29 12:19:10;;;;;;;2.40;0.80;;;7.90;99.90;;;;;;6107749;23;20009;-80
2024/02/29 12:21:36;;;;;;;;;;;8.00;99.90;;;;;;6157726;23;20010;-83
2024/02/29 12:24:04;;;;;;;0.45;0.45;;;8.10;99.90;;;;;;6129787;23;19916;-80
2024/02/29 12:26:30;;;;;;;1.90;1.80;;;8.10;99.90;;;;;;6157289;23;20045;-82
2024/02/29 12:28:56;;;;;;;1.05;1.05;;;8.10;99.90;;;;;;6156013;23;20477;-80
2024/02/29 12:31:22;;;;;;;0.75;0.75;;;8.10;99.90;;;;;;6129201;23;20048;-81
2024/02/29 12:33:48;;;;;;;0.52;0.52;;;8.10;99.90;;;;;;6130156;23;20159;-79
2024/02/29 12:36:24;;;;;;;2.75;1.17;;;8.10;99.90;;;;;;6131122;23;20022;-82
2024/02/29 12:38:52;;;;;;;0.65;0.65;;;8.00;99.90;;;;;;6155273;23;20020;-81
2024/02/29 12:41:17;;;;;;;0.60;0.60;;;8.00;99.90;;;;;;6129813;23;20017;-79
2024/02/29 12:43:48;;;;;;;1.85;1.75;;;8.00;99.90;;;;;;6128701;23;20396;-80
2024/02/29 12:46:17;;;;;;;0.50;0.50;;;8.10;99.90;;;;;;6131132;23;20021;-80
2024/02/29 12:48:43;;;;;;;0.50;0.50;;;8.00;99.90;;;;;;6131620;23;20045;-80
2024/02/29 12:51:13;;;;;;;1.20;1.10;;;8.00;99.90;;;;;;6156588;23;20018;-80
2024/02/29 12:53:39;;;;;;;1.60;1.50;;;8.00;99.90;;;;;;6105122;23;20084;-80
2024/02/29 12:56:05;;;;;;;1.95;1.02;;;8.00;99.90;;;;;;6156874;23;20017;-84
2024/02/29 12:58:31;;;;;;;;;;;8.00;99.90;;;;;;6159777;23;20021;-81
2024/02/29 13:00:59;;;;;;;1.60;0.85;;;8.00;99.90;;;;;;6159337;23;19913;-80
2024/02/29 13:03:26;;;;;;;0.50;0.50;;;8.10;99.90;;;;;;6106057;23;20017;-78
2024/02/29 13:05:52;;;;;;;5.47;1.75;;;8.00;99.90;;;;;;6129390;23;20053;-80
2024/02/29 13:08:20;;;;;;;0.43;0.43;;;8.00;99.90;;;;;;6128234;23;20021;-81
2024/02/29 13:10:45;;;;;;;0.75;0.75;;;8.00;99.90;;;;;;6127089;23;20021;-79
2024/02/29 13:13:11;;;;;;;1.00;1.00;;;8.10;99.90;;;;;;6154613;23;20085;-81